Time,TemperatureF,DewpointF,PressureIn,WindDirection,WindDirectionDegrees,WindSpeedMPH,WindSpeedGustMPH,Humidity,HourlyPrecipIn,Conditions,Clouds,dailyrainin,SoftwareType,DateUTC
2013-08-19 00:11:00,69.0,69.0,30.03,East,82,0.0,0.0,99,0.00,,,0.67,,2013-08-19 05:11:00,
2013-08-19 00:22:00,69.0,69.0,30.03,East,84,0.0,0.0,99,0.00,,,0.67,,2013-08-19 05:22:00,
2013-08-19 00:42:00,69.0,69.0,30.03,ENE,74,0.0,2.0,99,0.00,,,0.67,,2013-08-19 05:42:00,
2013-08-19 00:52:00,69.0,69.0,30.03,ENE,78,1.0,2.0,99,0.00,,,0.67,,2013-08-19 05:52:00,
2013-08-19 01:11:00,69.0,69.0,30.03,East,87,1.0,4.0,99,0.00,,,0.67,,2013-08-19 06:11:00,
2013-08-19 01:21:00,69.0,69.0,30.03,East,98,0.0,4.0,99,0.00,,,0.67,,2013-08-19 06:21:00,
2013-08-19 01:42:00,69.0,69.0,30.02,East,96,0.0,1.0,99,0.00,,,0.67,,2013-08-19 06:42:00,
2013-08-19 01:52:00,68.0,68.0,30.02,ENE,75,0.0,1.0,99,0.00,,,0.67,,2013-08-19 06:52:00,
2013-08-19 02:12:00,68.0,68.0,30.01,East,86,0.0,1.0,99,0.00,,,0.67,,2013-08-19 07:12:00,
2013-08-19 02:21:00,68.0,68.0,30.01,East,86,0.0,0.0,99,0.00,,,0.67,,2013-08-19 07:21:00,
2013-08-19 02:42:00,68.0,68.0,30.01,East,85,0.0,1.0,99,0.00,,,0.67,,2013-08-19 07:42:00,
2013-08-19 02:52:00,68.0,68.0,30.01,East,85,0.0,0.0,99,0.00,,,0.67,,2013-08-19 07:52:00,
2013-08-19 03:11:00,68.0,68.0,30.01,East,85,0.0,1.0,99,0.00,,,0.67,,2013-08-19 08:11:00,
2013-08-19 03:21:00,68.0,68.0,30.00,East,82,0.0,1.0,99,0.00,,,0.67,,2013-08-19 08:21:00,
2013-08-19 03:42:00,68.0,68.0,30.00,East,81,0.0,1.0,99,0.00,,,0.67,,2013-08-19 08:42:00,
2013-08-19 03:52:00,68.0,68.0,30.00,East,81,0.0,1.0,99,0.00,,,0.67,,2013-08-19 08:52:00,
2013-08-19 04:11:00,68.0,68.0,30.00,East,86,1.0,3.0,99,0.00,,,0.67,,2013-08-19 09:11:00,
2013-08-19 04:22:00,68.0,68.0,30.00,ENE,70,0.0,2.0,99,0.00,,,0.67,,2013-08-19 09:22:00,
2013-08-19 04:43:00,69.0,69.0,29.99,East,79,1.0,3.0,99,0.00,,,0.64,,2013-08-19 09:43:00,
2013-08-19 04:53:00,69.0,69.0,29.99,ENE,68,2.0,4.0,99,0.00,,,0.64,,2013-08-19 09:53:00,
2013-08-19 05:12:00,69.0,69.0,29.98,ENE,70,1.0,4.0,99,0.00,,,0.64,,2013-08-19 10:12:00,
2013-08-19 05:23:00,69.0,69.0,29.98,SE,145,1.0,3.0,99,0.00,,,0.64,,2013-08-19 10:23:00,
2013-08-19 05:43:00,69.0,69.0,29.99,East,94,0.0,3.0,99,0.00,,,0.57,,2013-08-19 10:43:00,
2013-08-19 05:52:00,69.0,69.0,29.99,East,79,0.0,4.0,99,0.00,,,0.57,,2013-08-19 10:52:00,
2013-08-19 06:12:00,69.0,69.0,29.99,ENE,68,1.0,3.0,99,0.00,,,0.57,,2013-08-19 11:12:00,
2013-08-19 06:22:00,70.0,70.0,29.99,East,96,0.0,3.0,99,0.00,,,0.57,,2013-08-19 11:22:00,
2013-08-19 06:45:00,70.0,70.0,30.00,ENE,75,0.0,4.0,99,0.00,,,0.53,,2013-08-19 11:45:00,
2013-08-19 06:52:00,70.0,70.0,30.01,East,91,1.0,3.0,99,0.00,,,0.53,,2013-08-19 11:52:00,
2013-08-19 07:11:00,70.0,70.0,30.01,East,86,2.0,3.0,99,0.00,,,0.53,,2013-08-19 12:11:00,
2013-08-19 07:21:00,70.0,70.0,30.01,NE,47,1.0,4.0,99,0.00,,,0.53,,2013-08-19 12:21:00,
2013-08-19 07:42:00,70.0,70.0,30.01,ENE,72,0.0,2.0,99,0.00,,,0.46,,2013-08-19 12:42:00,
2013-08-19 07:52:00,70.0,70.0,30.02,ESE,120,0.0,4.0,99,0.00,,,0.46,,2013-08-19 12:52:00,
2013-08-19 08:13:00,71.0,71.0,30.03,East,79,1.0,3.0,99,0.00,,,0.46,,2013-08-19 13:13:00,
2013-08-19 08:22:00,71.0,71.0,30.03,ESE,115,0.0,1.0,99,0.00,,,0.46,,2013-08-19 13:22:00,
2013-08-19 08:42:00,71.0,71.0,30.03,ESE,103,0.0,2.0,99,0.00,,,0.40,,2013-08-19 13:42:00,
2013-08-19 08:52:00,72.0,72.0,30.03,NE,47,1.0,4.0,99,0.00,,,0.40,,2013-08-19 13:52:00,
2013-08-19 09:11:00,72.0,72.0,30.03,ESE,114,0.0,3.0,99,0.00,,,0.40,,2013-08-19 14:11:00,
2013-08-19 09:22:00,72.0,72.0,30.03,ESE,106,0.0,2.0,99,0.00,,,0.40,,2013-08-19 14:22:00,
2013-08-19 09:42:00,73.0,73.0,30.03,ENE,70,0.0,3.0,99,0.00,,,0.39,,2013-08-19 14:42:00,
2013-08-19 09:52:00,73.0,73.0,30.03,ENE,58,0.0,4.0,99,0.00,,,0.39,,2013-08-19 14:52:00,
2013-08-19 10:11:00,74.0,74.0,30.03,SE,142,0.0,3.0,99,0.00,,,0.39,,2013-08-19 15:11:00,
2013-08-19 10:23:00,75.0,74.0,30.04,ENE,72,1.0,4.0,98,0.00,,,0.39,,2013-08-19 15:23:00,
2013-08-19 10:44:00,76.0,75.0,30.04,ESE,108,0.0,6.0,97,0.00,,,0.39,,2013-08-19 15:44:00,
2013-08-19 10:54:00,76.0,74.0,30.04,ENE,65,2.0,3.0,95,0.00,,,0.39,,2013-08-19 15:54:00,
2013-08-19 11:13:00,78.0,76.0,30.05,SE,134,0.0,4.0,93,0.00,,,0.39,,2013-08-19 16:13:00,
2013-08-19 11:23:00,80.0,76.0,30.04,SE,131,0.0,2.0,88,0.00,,,0.39,,2013-08-19 16:23:00,
2013-08-19 11:47:00,80.0,76.0,30.04,SE,138,0.0,3.0,88,0.00,,,0.39,,2013-08-19 16:47:00,
2013-08-19 12:13:00,82.0,77.0,30.04,SSE,150,0.0,1.0,84,0.00,,,0.39,,2013-08-19 17:13:00,
2013-08-19 12:30:00,82.0,-99.9,30.03,South,187,0.0,5.0,83,0.00,,,0.39,,2013-08-19 17:30:00,
2013-08-19 12:49:00,84.0,76.0,30.03,ESE,123,0.0,2.0,78,0.00,,,0.39,,2013-08-19 17:49:00,
2013-08-19 12:57:00,85.0,78.0,30.02,SSW,201,1.0,3.0,81,0.00,,,0.39,,2013-08-19 17:57:00,
2013-08-19 13:19:00,86.0,77.0,30.02,SE,137,1.0,5.0,75,0.00,,,0.39,,2013-08-19 18:19:00,
2013-08-19 13:28:00,86.0,76.0,30.02,ESE,103,0.0,4.0,72,0.00,,,0.39,,2013-08-19 18:28:00,
2013-08-19 13:50:00,-999.0,-99.9,30.01,West,264,0.0,3.0,71,0.00,,,0.39,,2013-08-19 18:50:00,
2013-08-19 14:00:00,-999.0,-99.9,30.01,WSW,248,0.0,2.0,69,0.00,,,0.39,,2013-08-19 19:00:00,
2013-08-19 14:16:00,87.0,76.0,29.99,NE,43,1.0,3.0,71,0.00,,,0.39,,2013-08-19 19:16:00,
2013-08-19 14:30:00,-999.0,-99.9,29.99,SSW,195,0.0,3.0,71,0.00,,,0.39,,2013-08-19 19:30:00,
2013-08-19 14:50:00,87.0,79.0,29.98,ENE,70,0.0,4.0,77,0.00,,,0.39,,2013-08-19 19:50:00,
2013-08-19 14:59:00,88.0,78.0,29.97,ESE,115,1.0,4.0,72,0.00,,,0.39,,2013-08-19 19:59:00,
2013-08-19 15:20:00,87.0,77.0,29.97,East,79,0.0,4.0,72,0.00,,,0.39,,2013-08-19 20:20:00,
2013-08-19 15:30:00,89.0,-99.9,29.96,NE,47,0.0,4.0,68,0.00,,,0.39,,2013-08-19 20:30:00,
2013-08-19 15:50:00,89.0,77.0,29.95,NNE,32,1.0,4.0,69,0.00,,,0.39,,2013-08-19 20:50:00,
2013-08-19 16:00:00,-999.0,-99.9,29.96,East,89,0.0,0.0,-999,-99.99,,,-99.99,,2013-08-19 21:00:00,
2013-08-19 16:16:00,83.0,78.0,29.96,NE,51,1.0,5.0,84,0.00,,,0.39,,2013-08-19 21:16:00,
2013-08-19 16:25:00,79.0,76.0,29.96,NW,322,3.0,8.0,90,0.04,,,0.43,,2013-08-19 21:25:00,
2013-08-19 16:46:00,75.0,73.0,29.98,West,266,13.0,21.0,92,0.39,,,0.70,,2013-08-19 21:46:00,
2013-08-19 16:54:00,74.0,73.0,29.97,West,262,0.0,3.0,96,1.04,,,1.35,,2013-08-19 21:54:00,
2013-08-19 17:25:00,75.0,74.0,29.96,SW,235,0.0,1.0,97,1.08,,,1.44,,2013-08-19 22:25:00,
2013-08-19 17:44:00,76.0,75.0,29.95,SW,235,0.0,0.0,97,0.72,,,1.25,,2013-08-19 22:44:00,
2013-08-19 17:54:00,77.0,76.0,29.95,WSW,256,0.0,1.0,97,0.09,,,1.25,,2013-08-19 22:54:00,
2013-08-19 18:15:00,78.0,77.0,29.95,SE,136,0.0,1.0,97,0.00,,,1.25,,2013-08-19 23:15:00,
2013-08-19 18:25:00,79.0,78.0,29.95,SE,137,0.0,0.0,97,0.00,,,1.25,,2013-08-19 23:25:00,
2013-08-19 18:48:00,80.0,78.0,29.95,SSW,197,0.0,2.0,95,0.00,,,1.13,,2013-08-19 23:48:00,
2013-08-19 18:55:00,80.0,78.0,29.96,West,259,0.0,1.0,93,0.00,,,1.13,,2013-08-19 23:55:00,
2013-08-19 19:11:00,80.0,78.0,29.95,West,259,0.0,0.0,95,0.00,,,1.13,,2013-08-20 00:11:00,
2013-08-19 19:24:00,79.0,77.0,29.96,West,259,0.0,0.0,95,0.00,,,1.13,,2013-08-20 00:24:00,
2013-08-19 19:42:00,78.0,77.0,29.97,West,259,0.0,0.0,96,0.00,,,1.13,,2013-08-20 00:42:00,
2013-08-19 19:52:00,78.0,77.0,29.97,West,259,0.0,0.0,97,0.00,,,1.13,,2013-08-20 00:52:00,
2013-08-19 20:11:00,78.0,77.0,29.97,West,259,0.0,0.0,97,0.00,,,1.13,,2013-08-20 01:11:00,
2013-08-19 20:22:00,77.0,76.0,29.98,West,275,0.0,4.0,97,0.00,,,1.13,,2013-08-20 01:22:00,
2013-08-19 20:42:00,76.0,75.0,29.98,SE,142,0.0,2.0,96,0.00,,,1.13,,2013-08-20 01:42:00,
2013-08-19 20:52:00,76.0,75.0,29.98,East,85,1.0,2.0,96,0.00,,,1.13,,2013-08-20 01:52:00,
2013-08-19 21:11:00,75.0,74.0,30.00,WNW,287,3.0,7.0,96,0.03,,,1.17,,2013-08-20 02:11:00,
2013-08-19 21:21:00,74.0,73.0,30.03,WSW,245,3.0,8.0,96,1.05,,,2.19,,2013-08-20 02:21:00,
2013-08-19 21:42:00,71.0,69.0,30.01,North,351,1.0,20.0,95,2.18,,,3.32,,2013-08-20 02:42:00,
2013-08-19 21:52:00,71.0,70.0,30.00,NE,46,1.0,4.0,98,2.36,,,3.50,,2013-08-20 02:52:00,
2013-08-19 22:11:00,71.0,70.0,30.01,East,84,0.0,2.0,98,2.29,,,3.50,,2013-08-20 03:11:00,
2013-08-19 22:22:00,71.0,70.0,30.00,NNE,32,0.0,1.0,98,1.24,,,3.50,,2013-08-20 03:22:00,
2013-08-19 22:43:00,71.0,70.0,30.02,East,100,0.0,1.0,98,0.16,,,3.50,,2013-08-20 03:43:00,
2013-08-19 22:54:00,72.0,71.0,30.02,ENE,78,0.0,3.0,98,0.00,,,3.50,,2013-08-20 03:54:00,
2013-08-19 23:13:00,72.0,72.0,30.02,East,91,0.0,3.0,99,0.00,,,3.50,,2013-08-20 04:13:00,
2013-08-19 23:23:00,72.0,71.0,30.03,SE,131,0.0,4.0,98,0.00,,,3.50,,2013-08-20 04:23:00,
2013-08-19 23:43:00,72.0,71.0,30.03,SE,133,0.0,0.0,98,0.00,,,3.49,,2013-08-20 04:43:00,
2013-08-19 23:53:00,71.0,70.0,30.03,SE,133,0.0,0.0,98,0.01,,,3.50,,2013-08-20 04:53:00,